Terminal Aerodrome Forecast
Issued by NWS Spokane, WA

Home | Current Version | Previous Version | Text Only | Print | Product List | Glossary On
Versions: 1 2 3 4 5 6 7 8 9 10 11 12 13 14 15 16 17
000
FTUS46 KOTX 190539
TAFGEG
TAF
KGEG 190539Z 1906/2006 18012G18KT P6SM VCSH OVC100 WS015/22045KT
     FM190700 20017KT P6SM VCSH OVC100 WS015/22045KT
     FM191100 20015G23KT P6SM OVC080
     FM192100 20014KT P6SM -RA OVC050
     FM200300 20012KT 6SM -RA BR SCT030 OVC050=

USA.gov is the U.S. government's official web portal to all federal, state and local government web resources and services.